sensor_id;sensor_type;location;lat;lon;timestamp;P1;durP1;ratioP1;P2;durP2;ratioP2
72105;SDS011;59975;47.646;18.318;2023-03-23T00:02:25;7.10;;;3.43;;
72105;SDS011;59975;47.646;18.318;2023-03-23T00:04:52;5.03;;;2.65;;
72105;SDS011;59975;47.646;18.318;2023-03-23T00:07:19;6.10;;;2.53;;
72105;SDS011;59975;47.646;18.318;2023-03-23T00:09:48;7.43;;;3.53;;
72105;SDS011;59975;47.646;18.318;2023-03-23T00:12:24;8.35;;;2.75;;
72105;SDS011;59975;47.646;18.318;2023-03-23T00:14:58;7.35;;;2.80;;
72105;SDS011;59975;47.646;18.318;2023-03-23T00:17:28;6.75;;;2.78;;
72105;SDS011;59975;47.646;18.318;2023-03-23T00:19:54;6.13;;;2.30;;
72105;SDS011;59975;47.646;18.318;2023-03-23T00:22:21;6.95;;;2.63;;
72105;SDS011;59975;47.646;18.318;2023-03-23T00:24:50;7.00;;;2.67;;
72105;SDS011;59975;47.646;18.318;2023-03-23T00:27:16;7.85;;;2.75;;
72105;SDS011;59975;47.646;18.318;2023-03-23T00:29:42;6.47;;;2.72;;
72105;SDS011;59975;47.646;18.318;2023-03-23T00:32:10;8.30;;;2.97;;
72105;SDS011;59975;47.646;18.318;2023-03-23T00:34:39;5.43;;;2.58;;
72105;SDS011;59975;47.646;18.318;2023-03-23T00:37:06;6.90;;;3.08;;
72105;SDS011;59975;47.646;18.318;2023-03-23T00:39:32;6.72;;;2.80;;
72105;SDS011;59975;47.646;18.318;2023-03-23T00:42:01;8.63;;;2.75;;
72105;SDS011;59975;47.646;18.318;2023-03-23T00:44:28;6.43;;;2.67;;
72105;SDS011;59975;47.646;18.318;2023-03-23T00:46:56;8.30;;;3.00;;
72105;SDS011;59975;47.646;18.318;2023-03-23T00:49:23;7.97;;;2.80;;
72105;SDS011;59975;47.646;18.318;2023-03-23T00:51:50;7.47;;;3.03;;
72105;SDS011;59975;47.646;18.318;2023-03-23T00:54:19;7.25;;;3.20;;
72105;SDS011;59975;47.646;18.318;2023-03-23T00:56:46;6.07;;;3.13;;
72105;SDS011;59975;47.646;18.318;2023-03-23T00:59:11;11.32;;;2.67;;
72105;SDS011;59975;47.646;18.318;2023-03-23T01:01:37;8.73;;;2.70;;
72105;SDS011;59975;47.646;18.318;2023-03-23T01:04:03;6.40;;;2.83;;
72105;SDS011;59975;47.646;18.318;2023-03-23T01:06:36;5.40;;;2.63;;
72105;SDS011;59975;47.646;18.318;2023-03-23T01:09:08;6.60;;;2.88;;
72105;SDS011;59975;47.646;18.318;2023-03-23T01:11:35;4.67;;;2.67;;
72105;SDS011;59975;47.646;18.318;2023-03-23T01:14:02;7.97;;;2.60;;
72105;SDS011;59975;47.646;18.318;2023-03-23T01:16:28;4.43;;;2.55;;
72105;SDS011;59975;47.646;18.318;2023-03-23T01:18:53;8.07;;;2.67;;
72105;SDS011;59975;47.646;18.318;2023-03-23T01:21:20;5.13;;;2.55;;
72105;SDS011;59975;47.646;18.318;2023-03-23T01:23:46;5.47;;;2.50;;
72105;SDS011;59975;47.646;18.318;2023-03-23T01:26:13;10.00;;;2.72;;
72105;SDS011;59975;47.646;18.318;2023-03-23T01:28:41;8.30;;;3.00;;
72105;SDS011;59975;47.646;18.318;2023-03-23T01:31:08;5.53;;;2.63;;
72105;SDS011;59975;47.646;18.318;2023-03-23T01:33:39;8.50;;;3.15;;
72105;SDS011;59975;47.646;18.318;2023-03-23T01:36:08;8.73;;;2.60;;
72105;SDS011;59975;47.646;18.318;2023-03-23T01:38:37;8.07;;;2.83;;
72105;SDS011;59975;47.646;18.318;2023-03-23T01:41:03;5.63;;;2.60;;
72105;SDS011;59975;47.646;18.318;2023-03-23T01:43:29;6.13;;;2.67;;
72105;SDS011;59975;47.646;18.318;2023-03-23T01:45:55;6.00;;;2.58;;
72105;SDS011;59975;47.646;18.318;2023-03-23T01:50:58;5.10;;;2.45;;
72105;SDS011;59975;47.646;18.318;2023-03-23T01:53:30;6.18;;;3.10;;
72105;SDS011;59975;47.646;18.318;2023-03-23T01:56:02;5.32;;;2.83;;
72105;SDS011;59975;47.646;18.318;2023-03-23T01:58:30;7.20;;;2.77;;
72105;SDS011;59975;47.646;18.318;2023-03-23T02:00:58;6.82;;;2.58;;
72105;SDS011;59975;47.646;18.318;2023-03-23T02:03:26;5.57;;;2.42;;
72105;SDS011;59975;47.646;18.318;2023-03-23T02:05:54;6.40;;;2.63;;
72105;SDS011;59975;47.646;18.318;2023-03-23T02:08:23;7.10;;;3.13;;
72105;SDS011;59975;47.646;18.318;2023-03-23T02:10:51;3.65;;;2.20;;
72105;SDS011;59975;47.646;18.318;2023-03-23T02:13:17;6.40;;;2.93;;
72105;SDS011;59975;47.646;18.318;2023-03-23T02:18:12;13.95;;;3.40;;
72105;SDS011;59975;47.646;18.318;2023-03-23T02:21:09;5.45;;;2.38;;
72105;SDS011;59975;47.646;18.318;2023-03-23T02:34:52;8.52;;;2.92;;
72105;SDS011;59975;47.646;18.318;2023-03-23T02:37:21;5.63;;;2.40;;
72105;SDS011;59975;47.646;18.318;2023-03-23T02:40:02;4.95;;;2.70;;
72105;SDS011;59975;47.646;18.318;2023-03-23T02:42:39;8.10;;;2.50;;
72105;SDS011;59975;47.646;18.318;2023-03-23T02:45:10;6.78;;;3.03;;
72105;SDS011;59975;47.646;18.318;2023-03-23T02:47:38;6.25;;;2.60;;
72105;SDS011;59975;47.646;18.318;2023-03-23T02:50:05;4.67;;;2.20;;
72105;SDS011;59975;47.646;18.318;2023-03-23T02:52:35;5.35;;;2.42;;
72105;SDS011;59975;47.646;18.318;2023-03-23T02:55:03;5.95;;;3.03;;
72105;SDS011;59975;47.646;18.318;2023-03-23T02:57:29;4.40;;;2.40;;
72105;SDS011;59975;47.646;18.318;2023-03-23T02:59:56;5.32;;;2.65;;
72105;SDS011;59975;47.646;18.318;2023-03-23T03:04:55;10.75;;;3.17;;
72105;SDS011;59975;47.646;18.318;2023-03-23T03:07:30;5.32;;;3.00;;
72105;SDS011;59975;47.646;18.318;2023-03-23T03:15:29;4.20;;;2.55;;
72105;SDS011;59975;47.646;18.318;2023-03-23T03:20:30;5.90;;;2.67;;
72105;SDS011;59975;47.646;18.318;2023-03-23T03:22:58;5.07;;;2.70;;
72105;SDS011;59975;47.646;18.318;2023-03-23T03:25:25;7.65;;;2.88;;
72105;SDS011;59975;47.646;18.318;2023-03-23T03:27:52;6.10;;;2.97;;
72105;SDS011;59975;47.646;18.318;2023-03-23T03:30:21;4.32;;;2.47;;
72105;SDS011;59975;47.646;18.318;2023-03-23T03:32:52;6.22;;;2.40;;
72105;SDS011;59975;47.646;18.318;2023-03-23T03:35:22;5.93;;;2.60;;
72105;SDS011;59975;47.646;18.318;2023-03-23T03:37:48;6.38;;;2.97;;
72105;SDS011;59975;47.646;18.318;2023-03-23T03:40:16;6.13;;;3.20;;
72105;SDS011;59975;47.646;18.318;2023-03-23T03:42:44;4.65;;;2.83;;
72105;SDS011;59975;47.646;18.318;2023-03-23T03:45:17;4.72;;;2.78;;
72105;SDS011;59975;47.646;18.318;2023-03-23T03:47:44;7.25;;;2.83;;
72105;SDS011;59975;47.646;18.318;2023-03-23T03:50:10;5.07;;;2.95;;
72105;SDS011;59975;47.646;18.318;2023-03-23T03:52:35;5.83;;;2.20;;
72105;SDS011;59975;47.646;18.318;2023-03-23T03:55:03;6.45;;;2.90;;
72105;SDS011;59975;47.646;18.318;2023-03-23T03:57:29;6.47;;;3.03;;
72105;SDS011;59975;47.646;18.318;2023-03-23T03:59:55;8.30;;;2.87;;
72105;SDS011;59975;47.646;18.318;2023-03-23T04:02:21;5.07;;;3.58;;
72105;SDS011;59975;47.646;18.318;2023-03-23T04:04:47;6.63;;;3.08;;
72105;SDS011;59975;47.646;18.318;2023-03-23T04:07:14;6.55;;;2.60;;
72105;SDS011;59975;47.646;18.318;2023-03-23T04:09:41;8.60;;;3.30;;
72105;SDS011;59975;47.646;18.318;2023-03-23T04:12:14;6.07;;;3.08;;
72105;SDS011;59975;47.646;18.318;2023-03-23T04:14:40;8.40;;;3.00;;
72105;SDS011;59975;47.646;18.318;2023-03-23T04:17:06;7.80;;;2.90;;
72105;SDS011;59975;47.646;18.318;2023-03-23T04:19:34;5.63;;;3.05;;
72105;SDS011;59975;47.646;18.318;2023-03-23T04:22:02;7.15;;;3.60;;
72105;SDS011;59975;47.646;18.318;2023-03-23T04:24:28;4.85;;;2.50;;
72105;SDS011;59975;47.646;18.318;2023-03-23T04:26:56;6.78;;;2.75;;
72105;SDS011;59975;47.646;18.318;2023-03-23T04:29:21;7.37;;;2.63;;
72105;SDS011;59975;47.646;18.318;2023-03-23T04:31:47;9.43;;;2.93;;
72105;SDS011;59975;47.646;18.318;2023-03-23T04:34:15;6.07;;;3.22;;
72105;SDS011;59975;47.646;18.318;2023-03-23T04:36:42;4.45;;;2.63;;
72105;SDS011;59975;47.646;18.318;2023-03-23T04:39:08;7.43;;;3.17;;
72105;SDS011;59975;47.646;18.318;2023-03-23T04:41:38;6.20;;;3.00;;
72105;SDS011;59975;47.646;18.318;2023-03-23T04:44:05;5.63;;;2.90;;
72105;SDS011;59975;47.646;18.318;2023-03-23T04:46:42;5.65;;;2.67;;
72105;SDS011;59975;47.646;18.318;2023-03-23T04:49:10;6.78;;;2.80;;
72105;SDS011;59975;47.646;18.318;2023-03-23T04:51:35;6.50;;;3.20;;
72105;SDS011;59975;47.646;18.318;2023-03-23T04:54:01;7.63;;;2.80;;
72105;SDS011;59975;47.646;18.318;2023-03-23T04:56:26;8.70;;;3.20;;
72105;SDS011;59975;47.646;18.318;2023-03-23T04:58:52;8.80;;;3.07;;
72105;SDS011;59975;47.646;18.318;2023-03-23T05:01:18;5.22;;;2.53;;
72105;SDS011;59975;47.646;18.318;2023-03-23T05:03:43;6.83;;;3.13;;
72105;SDS011;59975;47.646;18.318;2023-03-23T05:06:09;4.85;;;2.95;;
72105;SDS011;59975;47.646;18.318;2023-03-23T05:08:35;11.32;;;3.38;;
72105;SDS011;59975;47.646;18.318;2023-03-23T05:11:04;6.10;;;3.23;;
72105;SDS011;59975;47.646;18.318;2023-03-23T05:13:31;7.55;;;3.13;;
72105;SDS011;59975;47.646;18.318;2023-03-23T05:15:56;10.32;;;3.80;;
72105;SDS011;59975;47.646;18.318;2023-03-23T05:18:22;8.63;;;3.40;;
72105;SDS011;59975;47.646;18.318;2023-03-23T05:20:48;9.45;;;3.58;;
72105;SDS011;59975;47.646;18.318;2023-03-23T05:23:14;8.57;;;3.45;;
72105;SDS011;59975;47.646;18.318;2023-03-23T05:25:40;8.67;;;3.40;;
72105;SDS011;59975;47.646;18.318;2023-03-23T05:28:06;6.55;;;3.40;;
72105;SDS011;59975;47.646;18.318;2023-03-23T05:30:33;6.80;;;2.78;;
72105;SDS011;59975;47.646;18.318;2023-03-23T05:32:59;4.90;;;2.92;;
72105;SDS011;59975;47.646;18.318;2023-03-23T05:35:25;8.90;;;3.50;;
72105;SDS011;59975;47.646;18.318;2023-03-23T05:37:52;6.55;;;2.60;;
72105;SDS011;59975;47.646;18.318;2023-03-23T05:40:18;5.68;;;2.70;;
72105;SDS011;59975;47.646;18.318;2023-03-23T05:42:45;6.33;;;3.23;;
72105;SDS011;59975;47.646;18.318;2023-03-23T05:45:12;6.38;;;3.10;;
72105;SDS011;59975;47.646;18.318;2023-03-23T05:47:39;9.60;;;3.00;;
72105;SDS011;59975;47.646;18.318;2023-03-23T05:50:06;6.25;;;2.95;;
72105;SDS011;59975;47.646;18.318;2023-03-23T05:52:34;5.45;;;2.75;;
72105;SDS011;59975;47.646;18.318;2023-03-23T05:55:00;5.10;;;3.20;;
72105;SDS011;59975;47.646;18.318;2023-03-23T05:57:26;7.70;;;3.40;;
72105;SDS011;59975;47.646;18.318;2023-03-23T05:59:53;6.60;;;2.75;;
72105;SDS011;59975;47.646;18.318;2023-03-23T06:02:18;6.70;;;3.40;;
72105;SDS011;59975;47.646;18.318;2023-03-23T06:04:44;6.13;;;2.75;;
72105;SDS011;59975;47.646;18.318;2023-03-23T06:07:09;7.73;;;3.80;;
72105;SDS011;59975;47.646;18.318;2023-03-23T06:09:39;6.05;;;3.13;;
72105;SDS011;59975;47.646;18.318;2023-03-23T06:12:06;7.40;;;2.97;;
72105;SDS011;59975;47.646;18.318;2023-03-23T06:14:33;5.93;;;2.75;;
72105;SDS011;59975;47.646;18.318;2023-03-23T06:16:58;7.67;;;2.97;;
72105;SDS011;59975;47.646;18.318;2023-03-23T06:19:24;6.57;;;3.60;;
72105;SDS011;59975;47.646;18.318;2023-03-23T06:21:51;6.10;;;3.10;;
72105;SDS011;59975;47.646;18.318;2023-03-23T06:24:17;10.85;;;2.97;;
72105;SDS011;59975;47.646;18.318;2023-03-23T06:26:43;6.47;;;3.45;;
72105;SDS011;59975;47.646;18.318;2023-03-23T06:29:09;6.37;;;3.50;;
72105;SDS011;59975;47.646;18.318;2023-03-23T06:31:42;6.45;;;2.92;;
72105;SDS011;59975;47.646;18.318;2023-03-23T06:34:11;4.70;;;3.13;;
72105;SDS011;59975;47.646;18.318;2023-03-23T06:36:40;10.73;;;3.63;;
72105;SDS011;59975;47.646;18.318;2023-03-23T06:39:11;5.70;;;3.10;;
72105;SDS011;59975;47.646;18.318;2023-03-23T06:41:37;7.85;;;3.10;;
72105;SDS011;59975;47.646;18.318;2023-03-23T06:44:09;10.32;;;3.40;;
72105;SDS011;59975;47.646;18.318;2023-03-23T06:46:47;6.10;;;3.33;;
72105;SDS011;59975;47.646;18.318;2023-03-23T06:49:13;10.98;;;3.75;;
72105;SDS011;59975;47.646;18.318;2023-03-23T06:51:41;6.82;;;3.30;;
72105;SDS011;59975;47.646;18.318;2023-03-23T06:57:25;11.77;;;5.40;;
72105;SDS011;59975;47.646;18.318;2023-03-23T07:00:11;7.30;;;3.30;;
72105;SDS011;59975;47.646;18.318;2023-03-23T07:02:41;6.75;;;3.13;;
72105;SDS011;59975;47.646;18.318;2023-03-23T07:05:12;5.13;;;3.58;;
72105;SDS011;59975;47.646;18.318;2023-03-23T07:07:39;11.10;;;3.67;;
72105;SDS011;59975;47.646;18.318;2023-03-23T07:10:07;7.85;;;3.35;;
72105;SDS011;59975;47.646;18.318;2023-03-23T07:12:36;7.40;;;3.00;;
72105;SDS011;59975;47.646;18.318;2023-03-23T07:15:03;6.68;;;3.08;;
72105;SDS011;59975;47.646;18.318;2023-03-23T07:17:33;5.50;;;3.67;;
72105;SDS011;59975;47.646;18.318;2023-03-23T07:20:04;9.95;;;3.20;;
72105;SDS011;59975;47.646;18.318;2023-03-23T07:54:02;9.35;;;3.38;;
72105;SDS011;59975;47.646;18.318;2023-03-23T07:56:46;7.15;;;3.15;;
72105;SDS011;59975;47.646;18.318;2023-03-23T08:02:36;8.93;;;4.00;;
72105;SDS011;59975;47.646;18.318;2023-03-23T08:05:12;7.03;;;2.92;;
72105;SDS011;59975;47.646;18.318;2023-03-23T08:07:47;5.32;;;2.80;;
72105;SDS011;59975;47.646;18.318;2023-03-23T08:10:24;4.25;;;2.58;;
72105;SDS011;59975;47.646;18.318;2023-03-23T08:12:58;5.43;;;2.93;;
72105;SDS011;59975;47.646;18.318;2023-03-23T08:15:46;8.93;;;2.80;;
72105;SDS011;59975;47.646;18.318;2023-03-23T08:18:16;5.85;;;2.60;;
72105;SDS011;59975;47.646;18.318;2023-03-23T08:20:52;7.82;;;2.92;;
72105;SDS011;59975;47.646;18.318;2023-03-23T08:23:55;6.00;;;2.72;;
72105;SDS011;59975;47.646;18.318;2023-03-23T08:26:26;10.90;;;3.33;;
72105;SDS011;59975;47.646;18.318;2023-03-23T08:33:03;6.35;;;3.15;;
72105;SDS011;59975;47.646;18.318;2023-03-23T08:36:12;5.60;;;3.00;;
72105;SDS011;59975;47.646;18.318;2023-03-23T08:38:38;6.37;;;2.80;;
72105;SDS011;59975;47.646;18.318;2023-03-23T08:41:18;8.00;;;2.92;;
72105;SDS011;59975;47.646;18.318;2023-03-23T08:43:44;4.63;;;2.47;;
72105;SDS011;59975;47.646;18.318;2023-03-23T08:46:13;4.10;;;2.60;;
72105;SDS011;59975;47.646;18.318;2023-03-23T08:48:39;8.57;;;2.58;;
72105;SDS011;59975;47.646;18.318;2023-03-23T08:51:06;5.47;;;2.17;;
72105;SDS011;59975;47.646;18.318;2023-03-23T08:53:32;6.50;;;3.22;;
72105;SDS011;59975;47.646;18.318;2023-03-23T08:58:53;4.95;;;1.95;;
72105;SDS011;59975;47.646;18.318;2023-03-23T09:01:19;4.53;;;1.92;;
72105;SDS011;59975;47.646;18.318;2023-03-23T09:03:45;5.22;;;1.98;;
72105;SDS011;59975;47.646;18.318;2023-03-23T09:06:11;4.77;;;1.90;;
72105;SDS011;59975;47.646;18.318;2023-03-23T09:08:38;3.97;;;1.90;;
72105;SDS011;59975;47.646;18.318;2023-03-23T09:54:54;6.13;;;2.03;;
72105;SDS011;59975;47.646;18.318;2023-03-23T12:18:48;7.93;;;1.90;;
72105;SDS011;59975;47.646;18.318;2023-03-23T12:21:21;6.07;;;2.50;;
72105;SDS011;59975;47.646;18.318;2023-03-23T12:35:04;3.20;;;1.65;;
72105;SDS011;59975;47.646;18.318;2023-03-23T12:42:58;5.05;;;2.15;;
72105;SDS011;59975;47.646;18.318;2023-03-23T12:48:11;6.97;;;2.10;;
72105;SDS011;59975;47.646;18.318;2023-03-23T12:50:45;3.15;;;1.98;;
72105;SDS011;59975;47.646;18.318;2023-03-23T12:53:33;3.72;;;1.92;;
72105;SDS011;59975;47.646;18.318;2023-03-23T12:56:21;3.60;;;1.80;;
72105;SDS011;59975;47.646;18.318;2023-03-23T12:59:02;2.97;;;1.87;;
72105;SDS011;59975;47.646;18.318;2023-03-23T13:01:38;6.47;;;1.70;;
72105;SDS011;59975;47.646;18.318;2023-03-23T13:04:18;7.40;;;2.22;;
72105;SDS011;59975;47.646;18.318;2023-03-23T13:06:47;4.13;;;1.63;;
72105;SDS011;59975;47.646;18.318;2023-03-23T13:09:35;6.07;;;1.70;;
72105;SDS011;59975;47.646;18.318;2023-03-23T13:12:18;2.87;;;1.73;;
72105;SDS011;59975;47.646;18.318;2023-03-23T13:20:23;9.23;;;2.30;;
72105;SDS011;59975;47.646;18.318;2023-03-23T13:28:00;2.67;;;1.63;;
72105;SDS011;59975;47.646;18.318;2023-03-23T13:30:27;2.90;;;2.00;;
72105;SDS011;59975;47.646;18.318;2023-03-23T13:33:01;3.15;;;2.03;;
72105;SDS011;59975;47.646;18.318;2023-03-23T13:35:32;3.35;;;1.75;;
72105;SDS011;59975;47.646;18.318;2023-03-23T13:38:01;4.03;;;1.73;;
72105;SDS011;59975;47.646;18.318;2023-03-23T13:40:29;2.88;;;1.70;;
72105;SDS011;59975;47.646;18.318;2023-03-23T13:42:57;2.75;;;1.67;;
72105;SDS011;59975;47.646;18.318;2023-03-23T13:45:36;2.60;;;1.80;;
72105;SDS011;59975;47.646;18.318;2023-03-23T13:48:04;4.03;;;2.00;;
72105;SDS011;59975;47.646;18.318;2023-03-23T13:50:50;6.15;;;2.15;;
72105;SDS011;59975;47.646;18.318;2023-03-23T13:53:28;4.15;;;1.95;;
72105;SDS011;59975;47.646;18.318;2023-03-23T13:58:49;3.33;;;1.83;;
72105;SDS011;59975;47.646;18.318;2023-03-23T14:01:31;6.07;;;3.30;;
72105;SDS011;59975;47.646;18.318;2023-03-23T14:04:00;5.72;;;2.78;;
72105;SDS011;59975;47.646;18.318;2023-03-23T14:06:35;7.50;;;2.75;;
72105;SDS011;59975;47.646;18.318;2023-03-23T14:09:06;5.05;;;2.38;;
72105;SDS011;59975;47.646;18.318;2023-03-23T14:11:50;2.93;;;1.80;;
72105;SDS011;59975;47.646;18.318;2023-03-23T14:14:23;3.42;;;2.20;;
72105;SDS011;59975;47.646;18.318;2023-03-23T14:16:51;5.72;;;2.42;;
72105;SDS011;59975;47.646;18.318;2023-03-23T14:19:22;3.53;;;2.20;;
72105;SDS011;59975;47.646;18.318;2023-03-23T14:21:51;3.25;;;2.28;;
72105;SDS011;59975;47.646;18.318;2023-03-23T14:24:26;5.90;;;2.00;;
72105;SDS011;59975;47.646;18.318;2023-03-23T14:27:00;4.90;;;2.97;;
72105;SDS011;59975;47.646;18.318;2023-03-23T14:29:33;3.45;;;2.30;;
72105;SDS011;59975;47.646;18.318;2023-03-23T14:31:58;4.72;;;2.10;;
72105;SDS011;59975;47.646;18.318;2023-03-23T14:34:26;9.13;;;2.20;;
72105;SDS011;59975;47.646;18.318;2023-03-23T14:36:54;4.05;;;2.08;;
72105;SDS011;59975;47.646;18.318;2023-03-23T14:41:54;5.43;;;2.30;;
72105;SDS011;59975;47.646;18.318;2023-03-23T14:44:24;4.80;;;2.60;;
72105;SDS011;59975;47.646;18.318;2023-03-23T14:46:53;7.13;;;2.63;;
72105;SDS011;59975;47.646;18.318;2023-03-23T14:49:23;5.03;;;2.70;;
72105;SDS011;59975;47.646;18.318;2023-03-23T14:51:54;5.88;;;2.60;;
72105;SDS011;59975;47.646;18.318;2023-03-23T14:54:25;7.20;;;3.03;;
72105;SDS011;59975;47.646;18.318;2023-03-23T14:56:52;13.75;;;2.90;;
72105;SDS011;59975;47.646;18.318;2023-03-23T14:59:18;6.30;;;2.00;;
72105;SDS011;59975;47.646;18.318;2023-03-23T15:01:45;7.57;;;2.22;;
72105;SDS011;59975;47.646;18.318;2023-03-23T15:04:22;10.00;;;2.05;;
72105;SDS011;59975;47.646;18.318;2023-03-23T15:06:52;5.45;;;2.42;;
72105;SDS011;59975;47.646;18.318;2023-03-23T15:09:21;4.07;;;1.95;;
72105;SDS011;59975;47.646;18.318;2023-03-23T15:11:53;3.77;;;1.90;;
72105;SDS011;59975;47.646;18.318;2023-03-23T15:17:23;4.93;;;1.90;;
72105;SDS011;59975;47.646;18.318;2023-03-23T15:19:51;5.50;;;1.98;;
72105;SDS011;59975;47.646;18.318;2023-03-23T15:24:43;5.27;;;2.23;;
72105;SDS011;59975;47.646;18.318;2023-03-23T15:27:16;4.75;;;2.78;;
72105;SDS011;59975;47.646;18.318;2023-03-23T15:29:52;8.37;;;2.30;;
72105;SDS011;59975;47.646;18.318;2023-03-23T15:32:26;5.25;;;2.47;;
72105;SDS011;59975;47.646;18.318;2023-03-23T15:34:54;3.55;;;2.00;;
72105;SDS011;59975;47.646;18.318;2023-03-23T15:37:26;6.60;;;2.38;;
72105;SDS011;59975;47.646;18.318;2023-03-23T15:39:53;5.00;;;2.47;;
72105;SDS011;59975;47.646;18.318;2023-03-23T15:42:23;4.97;;;2.90;;
72105;SDS011;59975;47.646;18.318;2023-03-23T15:47:32;6.78;;;2.95;;
72105;SDS011;59975;47.646;18.318;2023-03-23T15:52:57;5.70;;;2.47;;
72105;SDS011;59975;47.646;18.318;2023-03-23T15:55:24;6.23;;;2.63;;
72105;SDS011;59975;47.646;18.318;2023-03-23T15:57:56;6.90;;;2.65;;
72105;SDS011;59975;47.646;18.318;2023-03-23T16:00:23;5.53;;;2.45;;
72105;SDS011;59975;47.646;18.318;2023-03-23T16:03:00;5.20;;;3.10;;
72105;SDS011;59975;47.646;18.318;2023-03-23T16:05:29;7.43;;;3.40;;
72105;SDS011;59975;47.646;18.318;2023-03-23T16:07:55;5.25;;;3.13;;
72105;SDS011;59975;47.646;18.318;2023-03-23T16:10:21;5.87;;;2.90;;
72105;SDS011;59975;47.646;18.318;2023-03-23T16:12:49;5.75;;;3.10;;
72105;SDS011;59975;47.646;18.318;2023-03-23T16:15:14;7.28;;;3.58;;
72105;SDS011;59975;47.646;18.318;2023-03-23T16:17:41;6.90;;;4.13;;
72105;SDS011;59975;47.646;18.318;2023-03-23T16:22:43;7.95;;;2.70;;
72105;SDS011;59975;47.646;18.318;2023-03-23T16:25:09;6.97;;;2.60;;
72105;SDS011;59975;47.646;18.318;2023-03-23T16:27:36;8.07;;;2.22;;
72105;SDS011;59975;47.646;18.318;2023-03-23T16:30:36;6.57;;;2.47;;
72105;SDS011;59975;47.646;18.318;2023-03-23T16:32:57;4.75;;;2.40;;
72105;SDS011;59975;47.646;18.318;2023-03-23T16:35:22;6.10;;;2.60;;
72105;SDS011;59975;47.646;18.318;2023-03-23T16:37:49;5.60;;;2.60;;
72105;SDS011;59975;47.646;18.318;2023-03-23T16:40:17;8.75;;;3.70;;
72105;SDS011;59975;47.646;18.318;2023-03-23T16:42:44;8.63;;;3.75;;
72105;SDS011;59975;47.646;18.318;2023-03-23T16:45:10;7.53;;;3.58;;
72105;SDS011;59975;47.646;18.318;2023-03-23T16:47:37;8.40;;;3.27;;
72105;SDS011;59975;47.646;18.318;2023-03-23T16:50:04;9.95;;;3.45;;
72105;SDS011;59975;47.646;18.318;2023-03-23T16:52:32;15.93;;;3.85;;
72105;SDS011;59975;47.646;18.318;2023-03-23T16:55:00;9.93;;;4.13;;
72105;SDS011;59975;47.646;18.318;2023-03-23T16:57:26;15.20;;;5.90;;
72105;SDS011;59975;47.646;18.318;2023-03-23T16:59:52;18.02;;;6.40;;
72105;SDS011;59975;47.646;18.318;2023-03-23T17:02:18;12.97;;;6.10;;
72105;SDS011;59975;47.646;18.318;2023-03-23T17:04:44;17.30;;;5.20;;
72105;SDS011;59975;47.646;18.318;2023-03-23T17:07:11;8.80;;;4.10;;
72105;SDS011;59975;47.646;18.318;2023-03-23T17:09:37;6.95;;;3.08;;
72105;SDS011;59975;47.646;18.318;2023-03-23T17:12:03;7.07;;;2.92;;
72105;SDS011;59975;47.646;18.318;2023-03-23T17:14:29;7.53;;;3.13;;
72105;SDS011;59975;47.646;18.318;2023-03-23T17:16:54;9.80;;;3.03;;
72105;SDS011;59975;47.646;18.318;2023-03-23T17:19:20;7.15;;;3.80;;
72105;SDS011;59975;47.646;18.318;2023-03-23T17:21:46;8.30;;;3.10;;
72105;SDS011;59975;47.646;18.318;2023-03-23T17:24:12;9.55;;;3.30;;
72105;SDS011;59975;47.646;18.318;2023-03-23T17:26:37;8.10;;;2.70;;
72105;SDS011;59975;47.646;18.318;2023-03-23T17:29:03;11.70;;;3.37;;
72105;SDS011;59975;47.646;18.318;2023-03-23T17:31:28;6.95;;;2.92;;
72105;SDS011;59975;47.646;18.318;2023-03-23T17:33:54;9.03;;;4.23;;
72105;SDS011;59975;47.646;18.318;2023-03-23T17:36:21;9.07;;;4.10;;
72105;SDS011;59975;47.646;18.318;2023-03-23T17:38:47;8.73;;;3.30;;
72105;SDS011;59975;47.646;18.318;2023-03-23T17:41:12;7.38;;;3.35;;
72105;SDS011;59975;47.646;18.318;2023-03-23T17:43:39;11.80;;;3.87;;
72105;SDS011;59975;47.646;18.318;2023-03-23T17:46:05;8.77;;;3.92;;
72105;SDS011;59975;47.646;18.318;2023-03-23T17:48:32;14.15;;;4.50;;
72105;SDS011;59975;47.646;18.318;2023-03-23T17:50:58;9.10;;;3.88;;
72105;SDS011;59975;47.646;18.318;2023-03-23T17:53:26;7.00;;;3.28;;
72105;SDS011;59975;47.646;18.318;2023-03-23T17:55:54;6.07;;;2.53;;
72105;SDS011;59975;47.646;18.318;2023-03-23T17:58:20;4.32;;;2.30;;
72105;SDS011;59975;47.646;18.318;2023-03-23T18:00:46;5.85;;;2.97;;
72105;SDS011;59975;47.646;18.318;2023-03-23T18:03:12;6.43;;;3.03;;
72105;SDS011;59975;47.646;18.318;2023-03-23T18:05:38;9.02;;;2.70;;
72105;SDS011;59975;47.646;18.318;2023-03-23T18:08:06;5.77;;;2.70;;
72105;SDS011;59975;47.646;18.318;2023-03-23T18:10:32;7.68;;;4.03;;
72105;SDS011;59975;47.646;18.318;2023-03-23T18:13:01;6.60;;;3.72;;
72105;SDS011;59975;47.646;18.318;2023-03-23T18:15:30;9.13;;;4.23;;
72105;SDS011;59975;47.646;18.318;2023-03-23T18:17:57;9.13;;;4.32;;
72105;SDS011;59975;47.646;18.318;2023-03-23T18:20:24;9.25;;;4.45;;
72105;SDS011;59975;47.646;18.318;2023-03-23T18:22:51;7.63;;;4.30;;
72105;SDS011;59975;47.646;18.318;2023-03-23T18:25:16;17.07;;;4.47;;
72105;SDS011;59975;47.646;18.318;2023-03-23T18:27:42;8.82;;;3.90;;
72105;SDS011;59975;47.646;18.318;2023-03-23T18:30:08;11.03;;;4.53;;
72105;SDS011;59975;47.646;18.318;2023-03-23T18:32:35;7.35;;;3.85;;
72105;SDS011;59975;47.646;18.318;2023-03-23T18:35:01;8.10;;;3.75;;
72105;SDS011;59975;47.646;18.318;2023-03-23T18:37:28;7.55;;;3.42;;
72105;SDS011;59975;47.646;18.318;2023-03-23T18:39:54;7.28;;;3.58;;
72105;SDS011;59975;47.646;18.318;2023-03-23T18:42:19;9.00;;;3.60;;
72105;SDS011;59975;47.646;18.318;2023-03-23T18:44:45;6.67;;;3.73;;
72105;SDS011;59975;47.646;18.318;2023-03-23T18:47:11;9.23;;;3.78;;
72105;SDS011;59975;47.646;18.318;2023-03-23T18:49:37;5.53;;;3.17;;
72105;SDS011;59975;47.646;18.318;2023-03-23T18:52:02;9.57;;;3.30;;
72105;SDS011;59975;47.646;18.318;2023-03-23T18:54:28;8.40;;;4.00;;
72105;SDS011;59975;47.646;18.318;2023-03-23T18:56:57;10.00;;;3.73;;
72105;SDS011;59975;47.646;18.318;2023-03-23T18:59:23;12.23;;;4.07;;
72105;SDS011;59975;47.646;18.318;2023-03-23T19:01:49;6.03;;;3.40;;
72105;SDS011;59975;47.646;18.318;2023-03-23T19:04:16;10.05;;;4.00;;
72105;SDS011;59975;47.646;18.318;2023-03-23T19:06:46;12.20;;;4.10;;
72105;SDS011;59975;47.646;18.318;2023-03-23T19:09:13;14.23;;;4.20;;
72105;SDS011;59975;47.646;18.318;2023-03-23T19:11:40;6.97;;;4.00;;
72105;SDS011;59975;47.646;18.318;2023-03-23T19:14:05;9.93;;;4.30;;
72105;SDS011;59975;47.646;18.318;2023-03-23T19:16:31;10.07;;;4.50;;
72105;SDS011;59975;47.646;18.318;2023-03-23T19:18:59;8.50;;;4.40;;
72105;SDS011;59975;47.646;18.318;2023-03-23T19:21:26;9.57;;;4.25;;
72105;SDS011;59975;47.646;18.318;2023-03-23T19:23:52;11.90;;;5.50;;
72105;SDS011;59975;47.646;18.318;2023-03-23T19:26:23;15.02;;;4.70;;
72105;SDS011;59975;47.646;18.318;2023-03-23T19:28:52;6.70;;;3.40;;
72105;SDS011;59975;47.646;18.318;2023-03-23T19:31:17;7.43;;;3.07;;
72105;SDS011;59975;47.646;18.318;2023-03-23T19:33:46;7.93;;;3.60;;
72105;SDS011;59975;47.646;18.318;2023-03-23T19:36:12;9.48;;;4.18;;
72105;SDS011;59975;47.646;18.318;2023-03-23T19:38:38;10.33;;;3.70;;
72105;SDS011;59975;47.646;18.318;2023-03-23T19:41:03;8.20;;;4.17;;
72105;SDS011;59975;47.646;18.318;2023-03-23T19:43:29;9.55;;;3.80;;
72105;SDS011;59975;47.646;18.318;2023-03-23T19:45:55;6.85;;;3.70;;
72105;SDS011;59975;47.646;18.318;2023-03-23T19:48:21;13.33;;;4.73;;
72105;SDS011;59975;47.646;18.318;2023-03-23T19:50:48;7.50;;;3.58;;